Time;durP1;ratioP1;P1;durP2;ratioP2;P2;SDS_P1;SDS_P2;PMS_P1;PMS_P2;Temp;Humidity;BMP_temperature;BMP_pressure;BME280_temperature;BME280_humidity;BME280_pressure;Samples;Min_cycle;Max_cycle;Signal;HPM_P1;HPM_P2
2022/03/12 00:01:48;;;;;;;11.57;6.93;;;;;;;-0.35;45.49;102073.66;5000887;28;20046;-77
2022/03/12 00:04:15;;;;;;;13.07;7.17;;;;;;;-0.46;44.57;102067.06;4990783;28;20063;-76
2022/03/12 00:06:42;;;;;;;11.93;6.77;;;;;;;-0.51;45.06;102060.75;5024762;28;20049;-76
2022/03/12 00:09:08;;;;;;;14.07;7.83;;;;;;;-0.52;46.11;102070.25;5002041;28;20423;-76
2022/03/12 00:11:45;;;;;;;14.33;7.03;;;;;;;-0.54;44.12;102060.63;4975628;28;20444;-76
2022/03/12 00:14:13;;;;;;;15.43;8.17;;;;;;;-0.51;43.98;102060.75;5009535;28;20041;-76
2022/03/12 00:16:43;;;;;;;19.97;8.90;;;;;;;-0.54;45.69;102069.31;5010613;28;20049;-76
2022/03/12 00:19:10;;;;;;;15.97;7.43;;;;;;;-0.64;45.83;102062.81;4991232;28;20081;-76
2022/03/12 00:21:42;;;;;;;13.10;7.67;;;;;;;-0.55;44.71;102057.16;5009897;28;20053;-76
2022/03/12 00:24:15;;;;;;;13.13;6.97;;;;;;;-0.54;44.61;102056.31;4999002;28;20045;-76
2022/03/12 00:26:45;;;;;;;12.50;7.47;;;;;;;-0.63;45.11;102056.78;5009464;28;20049;-76
2022/03/12 00:29:15;;;;;;;14.37;8.10;;;;;;;-0.65;43.75;102055.84;5006694;28;20080;-76
2022/03/12 00:31:45;;;;;;;15.07;7.20;;;;;;;-0.72;43.92;102047.69;4991278;28;20536;-77
2022/03/12 00:34:13;;;;;;;13.50;7.30;;;;;;;-0.81;47.66;102053.31;5024263;28;20607;-76
2022/03/12 00:36:40;;;;;;;16.20;7.30;;;;;;;-0.79;45.72;102051.69;4991996;28;20041;-77
2022/03/12 00:39:12;;;;;;;12.83;6.33;;;;;;;-0.81;45.65;102052.44;4995616;28;20065;-76
2022/03/12 00:41:45;;;;;;;12.97;7.37;;;;;;;-0.91;45.55;102049.41;5008369;28;20107;-76
2022/03/12 00:44:12;;;;;;;13.60;8.50;;;;;;;-0.71;44.38;102041.69;5000197;28;20041;-76
2022/03/12 00:46:40;;;;;;;13.80;7.50;;;;;;;-0.86;46.40;102042.72;4994914;28;20049;-77
2022/03/12 00:49:07;;;;;;;12.93;7.17;;;;;;;-0.86;45.81;102044.41;4993115;28;20041;-77
2022/03/12 00:51:34;;;;;;;11.43;6.73;;;;;;;-0.82;45.36;102046.38;4960734;28;20041;-76
2022/03/12 00:54:03;;;;;;;12.03;7.77;;;;;;;-0.82;44.45;102040.28;5005277;28;20046;-76
2022/03/12 00:56:30;;;;;;;12.33;7.23;;;;;;;-0.77;45.01;102042.25;5011562;28;20045;-77
2022/03/12 00:58:59;;;;;;;15.47;6.93;;;;;;;-0.72;44.63;102048.56;5011855;28;20045;-76
2022/03/12 01:01:27;;;;;;;14.33;7.23;;;;;;;-0.86;45.89;102037.53;5031167;28;20076;-76
2022/03/12 01:03:54;;;;;;;14.23;7.50;;;;;;;-0.92;46.83;102042.44;5014248;28;20038;-76
2022/03/12 01:06:22;;;;;;;15.37;8.00;;;;;;;-0.82;44.01;102035.97;4992884;28;20049;-75
2022/03/12 01:08:49;;;;;;;12.97;7.27;;;;;;;-0.98;45.54;102028.28;5016154;28;20111;-76
2022/03/12 01:11:16;;;;;;;12.00;6.90;;;;;;;-0.99;46.71;102026.50;5009180;28;20042;-76
2022/03/12 01:13:42;;;;;;;15.07;7.60;;;;;;;-0.99;46.14;102029.09;5013372;28;20069;-76
2022/03/12 01:16:09;;;;;;;13.50;7.53;;;;;;;-1.07;45.64;102027.84;5011463;28;20156;-75
2022/03/12 01:18:39;;;;;;;12.83;6.63;;;;;;;-1.09;46.01;102035.56;5012131;28;20460;-75
2022/03/12 01:21:12;;;;;;;12.77;7.97;;;;;;;-1.07;47.21;102022.66;5004684;28;20500;-76
2022/03/12 01:23:38;;;;;;;13.60;7.60;;;;;;;-1.10;44.63;102025.06;5014774;28;20519;-75
2022/03/12 01:26:05;;;;;;;15.13;7.50;;;;;;;-1.07;46.36;102028.72;5012160;28;20125;-76
2022/03/12 01:28:32;;;;;;;14.33;7.30;;;;;;;-1.05;45.62;102027.09;5006867;28;20045;-76
2022/03/12 01:31:01;;;;;;;11.80;7.13;;;;;;;-0.97;44.96;102028.34;5027276;28;22089;-75
2022/03/12 01:33:28;;;;;;;15.40;7.73;;;;;;;-1.16;45.19;102023.09;5021272;28;20492;-75
2022/03/12 01:35:56;;;;;;;17.77;8.10;;;;;;;-1.16;44.34;102034.34;5010983;28;20404;-75
2022/03/12 01:38:34;;;;;;;17.27;8.53;;;;;;;-1.06;45.62;102021.84;5008735;28;20038;-75
2022/03/12 01:41:06;;;;;;;13.63;6.73;;;;;;;-1.09;45.02;102024.25;5013090;28;20034;-75
2022/03/12 01:43:36;;;;;;;15.07;7.90;;;;;;;-1.19;45.39;102021.22;4995063;28;20049;-75
2022/03/12 01:46:13;;;;;;;14.90;7.47;;;;;;;-1.13;44.43;102024.13;4992641;28;20120;-75
2022/03/12 01:48:48;;;;;;;15.93;7.33;;;;;;;-1.21;45.69;102021.97;5020658;28;20037;-75
2022/03/12 01:51:15;;;;;;;17.13;8.30;;;;;;;-1.22;45.77;102015.91;4997020;28;20776;-75
2022/03/12 01:53:43;;;;;;;13.33;8.03;;;;;;;-1.25;45.74;102015.75;5010618;28;20060;-75
2022/03/12 01:56:10;;;;;;;17.17;7.73;;;;;;;-1.34;45.91;102012.72;5004843;28;20424;-75
2022/03/12 01:58:36;;;;;;;16.07;7.80;;;;;;;-1.36;46.50;102006.53;5006262;28;20060;-75
2022/03/12 02:01:03;;;;;;;13.27;7.30;;;;;;;-1.44;46.33;102011.34;5029424;28;20044;-74
2022/03/12 02:03:32;;;;;;;13.90;8.40;;;;;;;-1.47;46.90;102007.72;5028868;28;20057;-76
2022/03/12 02:05:59;;;;;;;14.03;8.10;;;;;;;-1.42;47.83;102001.09;5029573;28;20598;-75
2022/03/12 02:08:27;;;;;;;13.70;7.63;;;;;;;-1.54;47.29;102008.22;4995170;28;20041;-75
2022/03/12 02:10:57;;;;;;;15.30;7.37;;;;;;;-1.55;48.26;102001.28;4988179;28;20052;-75
2022/03/12 02:13:25;;;;;;;17.53;8.80;;;;;;;-1.57;48.52;102002.91;4995737;28;20037;-75
2022/03/12 02:16:07;;;;;;;13.73;7.57;;;;;;;-1.52;46.88;102001.41;4990680;28;20151;-74
2022/03/12 02:18:35;;;;;;;15.83;7.23;;;;;;;-1.52;46.54;102001.41;4995789;28;20514;-76
2022/03/12 02:21:02;;;;;;;15.70;8.23;;;;;;;-1.59;47.57;101994.19;5001658;28;20037;-76
2022/03/12 02:23:29;;;;;;;16.27;8.37;;;;;;;-1.64;46.66;101999.09;5027696;28;20052;-76
2022/03/12 02:26:05;;;;;;;17.77;8.23;;;;;;;-1.69;47.81;102000.56;5007826;28;20132;-76
2022/03/12 02:28:33;;;;;;;12.57;7.33;;;;;;;-1.78;48.17;101995.81;5007968;28;20041;-75
2022/03/12 02:30:59;;;;;;;17.30;8.87;;;;;;;-1.75;47.42;102002.88;5009390;28;20080;-76
2022/03/12 02:33:29;;;;;;;13.83;7.97;;;;;;;-1.78;47.46;102006.16;5010282;28;20053;-76
2022/03/12 02:35:56;;;;;;;13.80;7.77;;;;;;;-1.72;47.74;101995.25;5028978;28;20041;-76
2022/03/12 02:38:27;;;;;;;16.87;8.73;;;;;;;-1.73;47.25;101988.28;4994355;28;20164;-76
2022/03/12 02:41:10;;;;;;;12.43;7.60;;;;;;;-1.77;48.19;101987.22;4985494;28;20041;-76
2022/03/12 02:43:43;;;;;;;15.90;7.73;;;;;;;-1.78;48.13;101995.81;5020130;28;20137;-76
2022/03/12 02:46:12;;;;;;;21.25;8.73;;;;;;;-1.94;49.16;101988.06;5007459;28;20044;-76
2022/03/12 02:48:39;;;;;;;16.77;8.10;;;;;;;-1.83;48.46;101988.63;4999607;28;20053;-76
2022/03/12 02:51:06;;;;;;;14.27;7.80;;;;;;;-1.94;49.23;101989.78;4993283;28;20038;-76
2022/03/12 02:53:33;;;;;;;16.00;7.73;;;;;;;-1.98;48.87;101996.50;5010169;28;20056;-76
2022/03/12 02:55:59;;;;;;;17.00;8.00;;;;;;;-1.94;49.82;101990.66;5013250;28;20168;-76
2022/03/12 02:58:27;;;;;;;16.73;8.93;;;;;;;-1.98;50.00;101984.44;5006866;28;20037;-76
2022/03/12 03:00:53;;;;;;;14.27;8.10;;;;;;;-1.92;48.44;101989.06;5012633;28;20040;-76
2022/03/12 03:03:23;;;;;;;13.27;8.00;;;;;;;-1.92;49.50;101983.88;5003875;28;20679;-76
2022/03/12 03:05:51;;;;;;;15.63;8.53;;;;;;;-1.92;49.50;101977.81;4997890;28;20037;-76
2022/03/12 03:08:20;;;;;;;15.50;8.33;;;;;;;-1.89;47.77;101980.56;5032753;28;20041;-76
2022/03/12 03:10:50;;;;;;;16.63;7.87;;;;;;;-1.95;47.46;101985.41;5011093;28;20045;-76
2022/03/12 03:13:17;;;;;;;15.03;8.40;;;;;;;-1.88;48.43;101982.31;5014699;28;20037;-76
2022/03/12 03:16:24;;;;;;;12.77;8.13;;;;;;;-1.90;48.58;101987.44;5007245;28;20034;-76
2022/03/12 03:18:53;;;;;;;15.77;9.27;;;;;;;-2.00;47.83;101982.59;5028056;28;20053;-76
2022/03/12 03:21:23;;;;;;;16.67;8.50;;;;;;;-1.95;47.40;101983.72;4996857;28;20107;-76
2022/03/12 03:23:51;;;;;;;13.73;7.40;;;;;;;-1.95;47.29;101986.28;5013204;28;20033;-76
2022/03/12 03:26:34;;;;;;;17.20;8.00;;;;;;;-1.95;48.72;101988.88;4995624;28;20087;-76
2022/03/12 03:29:01;;;;;;;16.87;8.47;;;;;;;-1.98;48.19;101983.56;5009666;28;20033;-76
2022/03/12 03:31:29;;;;;;;20.27;8.80;;;;;;;-2.12;49.49;101989.72;5007003;28;20041;-76
2022/03/12 03:33:55;;;;;;;15.57;8.53;;;;;;;-1.92;47.43;101988.19;5012885;28;20525;-76
2022/03/12 03:36:22;;;;;;;16.27;8.73;;;;;;;-1.98;48.69;101983.56;5014018;28;20109;-76
2022/03/12 03:38:50;;;;;;;15.03;9.23;;;;;;;-2.08;48.77;101982.19;5020914;28;20037;-76
2022/03/12 03:41:18;;;;;;;15.50;8.23;;;;;;;-2.07;48.23;101980.50;5012071;28;20125;-76
2022/03/12 03:43:47;;;;;;;14.23;8.53;;;;;;;-2.09;48.80;101983.00;5032364;28;20049;-76
2022/03/12 03:46:20;;;;;;;14.80;7.90;;;;;;;-2.15;48.71;101974.91;5014484;28;20524;-76
2022/03/12 03:48:49;;;;;;;15.13;8.53;;;;;;;-2.08;48.52;101970.97;5014652;28;20075;-76
2022/03/12 03:51:17;;;;;;;14.37;8.70;;;;;;;-2.11;48.54;101975.97;5014355;28;20037;-75
2022/03/12 03:53:43;;;;;;;17.40;9.43;;;;;;;-2.20;47.91;101978.06;4996701;28;20041;-76
2022/03/12 03:56:10;;;;;;;16.93;8.40;;;;;;;-2.19;48.86;101978.13;5014030;28;20046;-76
2022/03/12 03:58:37;;;;;;;13.80;8.83;;;;;;;-2.14;48.34;101970.63;5011111;28;20041;-76
2022/03/12 04:01:12;;;;;;;18.13;8.57;;;;;;;-2.28;50.00;101975.97;5015528;28;20038;-76
2022/03/12 04:03:48;;;;;;;14.70;8.97;;;;;;;-2.20;48.44;101980.66;4998415;28;20041;-76
2022/03/12 04:06:16;;;;;;;14.13;7.73;;;;;;;-2.32;49.22;101975.75;4998972;28;20125;-76
2022/03/12 04:08:43;;;;;;;18.87;8.47;;;;;;;-2.25;49.07;101984.72;5028758;28;20037;-76
2022/03/12 04:11:18;;;;;;;14.73;8.17;;;;;;;-2.34;50.01;101972.19;4996120;28;20048;-76
2022/03/12 04:13:46;;;;;;;17.83;8.93;;;;;;;-2.20;47.03;101978.97;5012683;28;20145;-76
2022/03/12 04:16:14;;;;;;;18.97;8.57;;;;;;;-2.25;47.99;101979.56;4996113;28;20038;-76
2022/03/12 04:18:45;;;;;;;18.20;8.93;;;;;;;-2.34;48.23;101974.78;5012895;28;20076;-76
2022/03/12 04:21:16;;;;;;;16.93;8.70;;;;;;;-2.21;49.73;101978.88;5007236;28;20042;-76
2022/03/12 04:23:44;;;;;;;19.13;7.77;;;;;;;-2.23;50.53;101984.00;4993935;28;20104;-75
2022/03/12 04:26:11;;;;;;;16.90;8.77;;;;;;;-2.29;49.04;101973.31;5031551;28;20451;-76
2022/03/12 04:28:38;;;;;;;16.87;8.40;;;;;;;-2.32;49.92;101966.28;4994982;28;20050;-75
2022/03/12 04:31:07;;;;;;;25.47;9.17;;;;;;;-2.37;49.11;101979.78;5012174;28;20049;-75
2022/03/12 04:33:34;;;;;;;16.10;9.43;;;;;;;-2.26;48.59;101976.06;4996179;28;20068;-75
2022/03/12 04:36:02;;;;;;;18.10;8.20;;;;;;;-2.28;48.86;101975.06;5010975;28;20033;-75
2022/03/12 04:38:29;;;;;;;12.37;8.77;;;;;;;-2.28;48.83;101972.50;5006861;28;20049;-75
2022/03/12 04:40:56;;;;;;;22.67;9.37;;;;;;;-2.35;48.92;101986.84;5012573;28;20025;-75
2022/03/12 04:43:25;;;;;;;14.73;8.27;;;;;;;-2.42;49.77;101984.72;5003306;28;20042;-75
2022/03/12 04:45:52;;;;;;;16.27;8.30;;;;;;;-2.43;48.88;101982.94;5012672;28;20075;-75
2022/03/12 04:48:21;;;;;;;17.97;8.87;;;;;;;-2.43;50.09;101980.38;4994952;28;20072;-75
2022/03/12 04:50:52;;;;;;;18.67;9.20;;;;;;;-2.39;50.09;101979.69;5010324;28;20040;-75
2022/03/12 04:53:21;;;;;;;13.90;9.13;;;;;;;-2.45;50.07;101979.38;5008317;28;20049;-75
2022/03/12 04:55:48;;;;;;;16.33;8.53;;;;;;;-2.46;50.19;101982.75;5013117;28;20049;-75
2022/03/12 04:58:15;;;;;;;17.90;9.30;;;;;;;-2.50;49.78;101983.44;5013579;28;20135;-75
2022/03/12 05:00:43;;;;;;;16.00;8.40;;;;;;;-2.53;50.66;101988.41;5028880;28;20037;-75
2022/03/12 05:03:13;;;;;;;19.23;10.60;;;;;;;-2.48;49.80;101974.03;5004275;28;20084;-75
2022/03/12 05:05:41;;;;;;;17.63;8.80;;;;;;;-2.45;50.64;101979.38;5013563;28;20038;-74
2022/03/12 05:08:10;;;;;;;17.00;8.80;;;;;;;-2.48;50.48;101979.22;5013117;28;20037;-74
2022/03/12 05:10:37;;;;;;;15.57;8.57;;;;;;;-2.49;51.01;101976.56;5027151;28;20034;-74
2022/03/12 05:13:04;;;;;;;20.10;9.47;;;;;;;-2.63;51.19;101979.28;5040221;28;20046;-75
2022/03/12 05:15:39;;;;;;;17.07;7.93;;;;;;;-2.41;48.59;101980.44;4992285;28;20544;-75
2022/03/12 05:18:07;;;;;;;20.70;9.73;;;;;;;-2.44;50.25;101983.72;5013281;28;20029;-75
2022/03/12 05:20:38;;;;;;;15.97;9.53;;;;;;;-2.52;50.44;101990.22;4997041;28;20045;-75
2022/03/12 05:23:07;;;;;;;18.60;9.77;;;;;;;-2.52;49.36;101981.53;4997112;28;20525;-75
2022/03/12 05:25:35;;;;;;;17.17;8.57;;;;;;;-2.48;50.32;101981.81;5013567;28;20045;-75
2022/03/12 05:28:02;;;;;;;16.07;8.43;;;;;;;-2.49;49.61;101985.19;5011298;28;20715;-75
2022/03/12 05:30:29;;;;;;;16.70;8.70;;;;;;;-2.55;51.78;101997.81;5001526;28;20046;-75
2022/03/12 05:32:56;;;;;;;18.47;9.50;;;;;;;-2.61;50.71;101980.28;5007620;28;20500;-75
2022/03/12 05:35:22;;;;;;;18.97;8.87;;;;;;;-2.63;51.32;101988.75;5010360;28;20041;-75
2022/03/12 05:37:50;;;;;;;17.23;9.10;;;;;;;-2.69;51.53;101991.91;5024942;28;20041;-75
2022/03/12 05:40:25;;;;;;;18.47;8.50;;;;;;;-2.57;49.31;101989.06;4985061;28;20522;-75
2022/03/12 05:42:55;;;;;;;19.47;9.60;;;;;;;-2.57;50.95;101989.06;5011073;28;20059;-75
2022/03/12 05:45:23;;;;;;;21.53;9.87;;;;;;;-2.69;51.02;101990.97;5012587;28;20040;-75
2022/03/12 05:47:51;;;;;;;20.60;8.43;;;;;;;-2.65;52.65;102000.72;5009690;28;20033;-75
2022/03/12 05:50:19;;;;;;;14.00;8.17;;;;;;;-2.69;52.03;102001.31;5012669;28;20103;-75
2022/03/12 05:52:49;;;;;;;13.93;7.97;;;;;;;-2.64;51.60;101997.31;5007701;28;20528;-75
2022/03/12 05:55:17;;;;;;;15.80;8.97;;;;;;;-2.59;51.09;101995.88;4994774;28;20142;-75
2022/03/12 05:57:44;;;;;;;20.43;10.03;;;;;;;-2.60;50.39;101994.97;5009729;28;20045;-75
2022/03/12 06:00:12;;;;;;;16.10;9.47;;;;;;;-2.69;52.83;102002.25;4994132;28;20116;-75
2022/03/12 06:02:46;;;;;;;18.87;8.93;;;;;;;-2.67;52.08;101999.75;4991238;28;20133;-75
2022/03/12 06:05:14;;;;;;;48.50;25.33;;;;;;;-2.62;50.94;101993.97;5006581;28;20068;-75
2022/03/12 06:07:44;;;;;;;138.43;62.70;;;;;;;-2.58;51.37;102002.81;5009879;28;20048;-75
2022/03/12 06:10:19;;;;;;;45.03;19.47;;;;;;;-2.61;51.39;102012.97;5002205;28;20048;-75
2022/03/12 06:12:46;;;;;;;25.47;14.17;;;;;;;-2.57;51.38;102008.06;5027618;28;20065;-76
2022/03/12 06:15:18;;;;;;;18.90;11.47;;;;;;;-2.52;51.83;102007.41;5011596;28;20030;-75
2022/03/12 06:17:45;;;;;;;22.80;10.93;;;;;;;-2.54;50.51;102015.09;5011648;28;20080;-75
2022/03/12 06:20:14;;;;;;;25.07;15.83;;;;;;;-2.50;51.93;102017.06;4994420;28;20080;-76
2022/03/12 06:22:41;;;;;;;47.53;35.93;;;;;;;-2.53;51.20;102013.41;4993288;28;20049;-74
2022/03/12 06:25:09;;;;;;;24.37;18.80;;;;;;;-2.44;50.57;102026.84;5010812;28;20047;-74
2022/03/12 06:27:36;;;;;;;25.03;20.03;;;;;;;-2.35;50.15;102025.66;5004061;28;20042;-76
2022/03/12 06:30:07;;;;;;;18.23;14.43;;;;;;;-2.42;49.75;102028.72;4976012;28;20041;-76
2022/03/12 06:32:36;;;;;;;95.60;42.43;;;;;;;-2.22;49.92;102022.00;5008197;28;20048;-75
2022/03/12 06:35:04;;;;;;;25.63;12.57;;;;;;;-2.19;50.37;102018.69;4993995;28;20048;-76
2022/03/12 06:37:30;;;;;;;30.27;15.77;;;;;;;-2.16;50.07;102014.56;5022643;28;20042;-75
2022/03/12 06:39:58;;;;;;;28.40;12.10;;;;;;;-2.24;50.84;102020.16;4994432;28;20073;-74
2022/03/12 06:42:27;;;;;;;42.10;18.20;;;;;;;-2.15;50.12;102031.00;4978540;28;20045;-75
2022/03/12 06:44:55;;;;;;;26.57;12.77;;;;;;;-2.05;49.23;102020.31;5011977;28;20084;-74
2022/03/12 06:47:27;;;;;;;23.27;10.10;;;;;;;-2.12;51.14;102034.63;4991396;28;20037;-76
2022/03/12 06:49:54;;;;;;;15.83;9.27;;;;;;;-1.95;49.12;102017.38;4977237;28;20507;-74
2022/03/12 06:52:21;;;;;;;17.87;9.80;;;;;;;-2.08;49.68;102027.91;5008018;28;20053;-76
2022/03/12 06:54:48;;;;;;;19.33;10.13;;;;;;;-1.95;50.18;102034.63;5011449;28;20052;-75
2022/03/12 06:57:15;;;;;;;18.40;9.07;;;;;;;-1.87;48.49;102034.19;4994750;28;20037;-75
2022/03/12 06:59:41;;;;;;;16.17;8.90;;;;;;;-1.74;47.42;102038.31;4993187;28;20471;-76
2022/03/12 07:02:08;;;;;;;16.93;8.83;;;;;;;-1.74;48.03;102041.81;5010244;28;20442;-75
2022/03/12 07:04:35;;;;;;;20.93;9.23;;;;;;;-1.71;47.99;102036.78;5010535;28;20050;-76
2022/03/12 07:07:01;;;;;;;27.13;14.57;;;;;;;-1.48;47.75;102034.47;4973355;28;20096;-75
2022/03/12 07:09:29;;;;;;;16.10;9.47;;;;;;;-1.62;48.51;102046.72;4994113;28;20041;-75
2022/03/12 07:11:58;;;;;;;20.17;10.03;;;;;;;-1.39;47.17;102027.16;5011304;28;20041;-76
2022/03/12 07:14:25;;;;;;;21.70;9.27;;;;;;;-1.17;46.15;102044.66;5009315;28;20084;-75
2022/03/12 07:16:52;;;;;;;17.67;9.57;;;;;;;-0.90;46.01;102032.13;4990820;28;20037;-76
2022/03/12 07:19:19;;;;;;;17.97;9.63;;;;;;;-0.84;45.38;102042.81;5009555;28;20094;-75
2022/03/12 07:21:46;;;;;;;15.73;9.57;;;;;;;-0.77;45.34;102031.88;5011705;28;20349;-75
2022/03/12 07:24:13;;;;;;;24.50;11.33;;;;;;;-0.52;44.61;102033.91;4988506;28;20454;-75
2022/03/12 07:26:40;;;;;;;17.37;9.07;;;;;;;-0.33;44.32;102038.28;4991958;28;21781;-75
2022/03/12 07:29:06;;;;;;;18.20;10.37;;;;;;;-0.19;45.40;102013.78;4993812;28;20052;-74
2022/03/12 07:31:37;;;;;;;15.43;8.43;;;;;;;0.00;44.42;102036.31;5008978;28;20802;-74
2022/03/12 07:34:05;;;;;;;18.53;9.87;;;;;;;0.34;43.52;102025.66;5010201;28;20063;-76
2022/03/12 07:36:32;;;;;;;16.93;9.03;;;;;;;0.47;42.27;102030.56;4994187;28;20079;-75
2022/03/12 07:39:05;;;;;;;18.40;9.40;;;;;;;0.63;42.23;102033.81;5004571;28;20530;-75
2022/03/12 07:41:32;;;;;;;18.77;10.10;;;;;;;0.81;41.14;102024.16;5030512;28;20045;-75
2022/03/12 07:43:59;;;;;;;16.03;9.97;;;;;;;0.83;42.54;102022.50;5015702;28;20063;-75
2022/03/12 07:46:28;;;;;;;20.47;9.77;;;;;;;0.96;41.02;102023.91;5014288;28;20566;-76
2022/03/12 07:48:55;;;;;;;18.40;9.60;;;;;;;1.19;41.12;102017.00;4997679;28;20069;-75
2022/03/12 07:51:22;;;;;;;17.77;8.97;;;;;;;1.26;41.29;102024.19;5014308;28;20048;-75
2022/03/12 07:53:49;;;;;;;45.90;19.70;;;;;;;1.27;40.28;102020.81;4994502;28;20088;-74
2022/03/12 07:56:17;;;;;;;26.33;13.43;;;;;;;1.25;41.37;102023.31;5009008;28;20089;-76
2022/03/12 07:58:43;;;;;;;22.47;11.73;;;;;;;1.27;40.33;102024.28;4993085;28;20062;-74
2022/03/12 08:01:10;;;;;;;135.77;47.10;;;;;;;1.38;40.85;102029.91;5011633;28;20076;-76
2022/03/12 08:03:37;;;;;;;21.87;10.93;;;;;;;1.47;40.71;102027.66;5001253;28;20111;-75
2022/03/12 08:06:05;;;;;;;16.80;9.83;;;;;;;1.57;39.63;102021.06;5011909;28;20318;-77
2022/03/12 08:08:33;;;;;;;18.63;9.73;;;;;;;1.60;39.33;102021.22;5014240;28;20093;-75
2022/03/12 08:13:45;;;;;;;16.93;10.17;;;;;;;1.62;38.46;102020.44;5018180;28;20037;-76
2022/03/12 08:16:15;;;;;;;130.33;51.90;;;;;;;1.78;39.17;102021.00;5015038;28;20060;-76
2022/03/12 08:18:43;;;;;;;54.83;21.67;;;;;;;1.79;39.43;102026.25;5012847;28;20064;-77
2022/03/12 08:21:11;;;;;;;40.50;20.17;;;;;;;1.92;38.10;102023.25;5031098;28;20455;-76
2022/03/12 08:23:38;;;;;;;38.87;18.63;;;;;;;1.97;38.04;102019.13;5007112;28;20046;-76
2022/03/12 08:26:05;;;;;;;37.10;19.53;;;;;;;1.94;39.41;102012.91;4978924;28;20046;-76
2022/03/12 08:28:34;;;;;;;36.17;19.10;;;;;;;1.93;38.89;102011.13;4996364;28;20044;-76
2022/03/12 08:31:02;;;;;;;17.43;10.77;;;;;;;2.04;38.98;102016.75;5014375;28;20034;-77
2022/03/12 08:33:29;;;;;;;16.17;9.73;;;;;;;2.20;37.40;102009.50;5012960;28;20042;-76
2022/03/12 08:35:58;;;;;;;23.07;11.37;;;;;;;2.14;38.36;102014.50;5013860;28;20554;-76
2022/03/12 08:38:26;;;;;;;34.33;16.73;;;;;;;2.33;38.98;102015.16;5014084;28;20115;-76
2022/03/12 08:40:53;;;;;;;16.43;9.27;;;;;;;2.33;38.23;102008.19;4997514;28;20056;-77
2022/03/12 08:43:21;;;;;;;17.30;10.17;;;;;;;2.52;37.23;102012.31;4996070;28;20447;-76
2022/03/12 08:45:48;;;;;;;31.80;19.33;;;;;;;2.43;38.46;102017.22;4997855;28;20557;-76
2022/03/12 08:48:16;;;;;;;18.00;9.87;;;;;;;2.42;36.91;102005.91;4994297;28;20069;-76
2022/03/12 08:50:44;;;;;;;23.87;11.13;;;;;;;2.43;37.74;102009.41;5012225;28;20216;-77
2022/03/12 08:53:11;;;;;;;18.03;9.13;;;;;;;2.57;37.34;102008.16;4996347;28;20053;-77
2022/03/12 08:55:39;;;;;;;17.53;9.80;;;;;;;2.62;36.37;102011.81;5012582;28;20064;-77
2022/03/12 08:58:06;;;;;;;20.63;10.70;;;;;;;2.71;37.49;102013.84;5013054;28;20057;-76
2022/03/12 09:00:32;;;;;;;15.47;9.57;;;;;;;2.65;37.75;102009.31;4995089;28;20042;-77
2022/03/12 09:02:59;;;;;;;19.10;10.50;;;;;;;3.03;36.78;102010.56;5012505;28;20033;-77
2022/03/12 09:05:26;;;;;;;14.57;8.80;;;;;;;3.07;35.36;102006.31;4997092;28;20049;-77
2022/03/12 09:07:53;;;;;;;23.23;10.10;;;;;;;3.10;36.47;102012.50;5012561;28;20037;-76
2022/03/12 09:10:21;;;;;;;18.13;9.37;;;;;;;3.28;36.03;102003.47;4997291;28;20049;-77
2022/03/12 09:12:48;;;;;;;19.60;9.63;;;;;;;3.39;37.03;102005.59;4995989;28;20041;-77
2022/03/12 09:15:17;;;;;;;12.60;8.40;;;;;;;3.87;35.84;101997.41;5012450;28;20037;-76
2022/03/12 09:17:44;;;;;;;16.07;8.60;;;;;;;4.10;35.53;101997.16;5005722;28;20045;-77
2022/03/12 09:20:11;;;;;;;18.20;8.80;;;;;;;4.26;35.65;101996.72;5011165;28;20447;-77
2022/03/12 09:22:38;;;;;;;14.50;9.00;;;;;;;4.58;34.48;101988.81;4977020;28;20617;-77
2022/03/12 09:25:08;;;;;;;17.70;8.90;;;;;;;5.03;33.09;101984.69;4993430;28;20049;-77
2022/03/12 09:27:35;;;;;;;15.27;8.73;;;;;;;5.26;31.90;101990.47;4982291;28;20037;-77
2022/03/12 09:30:03;;;;;;;14.70;9.20;;;;;;;5.37;32.03;101988.06;5012275;28;20137;-77
2022/03/12 09:32:29;;;;;;;14.90;8.47;;;;;;;5.57;31.96;101986.78;4991765;28;20092;-77
2022/03/12 09:34:56;;;;;;;15.13;9.00;;;;;;;5.83;30.87;101982.06;4999085;28;20053;-77
2022/03/12 09:37:23;;;;;;;14.70;8.23;;;;;;;5.98;30.78;101983.28;4995955;28;20037;-77
2022/03/12 09:39:50;;;;;;;16.73;8.43;;;;;;;6.15;31.96;101971.34;5012738;28;20067;-77
2022/03/12 09:42:16;;;;;;;13.30;8.03;;;;;;;6.40;31.61;101972.69;5012223;28;20488;-77
2022/03/12 09:44:43;;;;;;;16.53;9.13;;;;;;;6.70;30.33;101983.69;5012450;28;20080;-77
2022/03/12 09:47:10;;;;;;;14.93;8.63;;;;;;;6.68;29.68;101971.41;5011650;28;20092;-77
2022/03/12 09:49:37;;;;;;;14.60;8.50;;;;;;;6.76;29.77;101964.53;5020911;28;20069;-76
2022/03/12 09:52:04;;;;;;;17.50;8.93;;;;;;;6.85;28.65;101963.78;5010910;28;20033;-76
2022/03/12 09:54:31;;;;;;;15.13;8.50;;;;;;;6.91;29.17;101963.91;5022045;28;20710;-76
2022/03/12 09:56:58;;;;;;;18.57;9.40;;;;;;;6.95;29.38;101963.94;4979598;28;20456;-77
2022/03/12 09:59:25;;;;;;;17.43;8.90;;;;;;;7.42;29.15;101957.63;5009169;28;20100;-77
2022/03/12 10:01:54;;;;;;;12.57;7.80;;;;;;;7.36;27.78;101955.78;5011341;28;20459;-77
2022/03/12 10:04:22;;;;;;;14.17;8.23;;;;;;;7.71;29.46;101948.31;5029441;28;20049;-76
2022/03/12 10:06:49;;;;;;;13.90;8.17;;;;;;;7.96;28.25;101944.22;5028750;28;20610;-77
2022/03/12 10:09:16;;;;;;;12.20;8.47;;;;;;;8.07;27.53;101942.63;5011553;28;20071;-77
2022/03/12 10:11:44;;;;;;;23.33;9.93;;;;;;;7.92;26.90;101941.56;4992912;28;20048;-76
2022/03/12 10:14:11;;;;;;;27.80;9.23;;;;;;;7.96;26.74;101938.97;4981138;28;20053;-78
2022/03/12 10:16:38;;;;;;;14.10;7.60;;;;;;;8.21;27.91;101934.84;4991027;28;20045;-77
2022/03/12 10:19:06;;;;;;;13.50;8.17;;;;;;;8.24;27.09;101926.06;4988378;28;20042;-77
2022/03/12 10:21:32;;;;;;;13.43;7.47;;;;;;;8.50;28.11;101931.63;5011096;28;20045;-77
2022/03/12 10:23:59;;;;;;;13.27;8.47;;;;;;;8.71;26.38;101929.16;4988824;28;20034;-78
2022/03/12 10:26:26;;;;;;;14.77;8.50;;;;;;;8.34;25.02;101922.69;5011833;28;20037;-77
2022/03/12 10:28:53;;;;;;;11.80;7.27;;;;;;;8.65;26.86;101924.69;5010391;28;20069;-78
2022/03/12 10:31:19;;;;;;;16.40;7.37;;;;;;;8.92;25.21;101920.53;5008385;28;20042;-77
2022/03/12 10:33:47;;;;;;;12.80;7.40;;;;;;;8.91;24.43;101927.56;5012045;28;20045;-77
2022/03/12 10:36:24;;;;;;;13.57;7.53;;;;;;;9.24;24.53;101931.22;5019232;23;20034;31
2022/03/12 10:38:51;;;;;;;10.83;7.60;;;;;;;9.02;24.04;101928.50;4959066;28;20527;-83
2022/03/12 10:41:18;;;;;;;13.87;7.90;;;;;;;9.05;25.12;101918.84;4971531;28;20042;-80
2022/03/12 10:43:49;;;;;;;15.33;7.73;;;;;;;9.32;24.96;101917.22;4990918;28;20041;-82
2022/03/12 10:46:25;;;;;;;12.17;8.27;;;;;;;9.63;23.88;101914.72;4963351;28;20050;-84
2022/03/12 10:48:56;;;;;;;12.98;7.80;;;;;;;9.90;24.21;101910.38;4982970;28;20074;-82
2022/03/12 10:51:30;;;;;;;54.30;36.97;;;;;;;10.16;24.60;101911.31;4982722;28;20084;-83
2022/03/12 10:54:15;;;;;;;18.00;12.38;;;;;;;10.01;22.92;101899.00;4983881;28;20042;-84
2022/03/12 10:56:54;;;;;;;12.48;9.52;;;;;;;10.08;23.44;101911.28;4963169;28;20053;-82
2022/03/12 10:59:26;;;;;;;16.52;12.02;;;;;;;9.35;22.26;101905.81;4974663;28;20038;-82
2022/03/12 11:02:04;;;;;;;17.17;7.73;;;;;;;9.33;23.51;101904.91;4985235;28;20077;-86
2022/03/12 11:04:34;;;;;;;11.50;6.97;;;;;;;9.26;22.12;101895.22;4974794;28;20056;-86
2022/03/12 11:07:20;;;;;;;12.73;10.05;;;;;;;9.67;23.11;101894.47;4991587;28;20061;-84
2022/03/12 11:09:47;;;;;;;12.50;8.10;;;;;;;9.86;24.19;101898.97;4976826;28;20122;-84
2022/03/12 11:12:35;;;;;;;12.82;6.93;;;;;;;10.10;23.49;101890.19;4972908;28;20050;-82
2022/03/12 11:15:15;;;;;;;12.43;7.28;;;;;;;9.76;22.33;101883.97;4983665;28;20529;-82
2022/03/12 11:17:47;;;;;;;12.48;7.40;;;;;;;10.00;23.29;101891.03;4976604;28;20064;-82
2022/03/12 11:20:27;;;;;;;16.17;8.52;;;;;;;9.80;22.57;101891.00;4978387;28;20554;-81
2022/03/12 11:23:12;;;;;;;11.43;7.43;;;;;;;9.89;23.00;101883.13;4980590;28;20197;-82
2022/03/12 11:25:56;;;;;;;12.57;7.68;;;;;;;10.13;24.18;101880.50;4978497;28;20041;-81
2022/03/12 11:28:24;;;;;;;12.52;8.95;;;;;;;9.71;24.09;101872.53;4979718;28;20080;-80
2022/03/12 11:30:51;;;;;;;11.73;7.70;;;;;;;10.10;24.45;101872.59;4969810;28;20100;-79